createdAt,value
2022-12-23T12:20:33.701Z,8.58
2022-12-23T12:23:21.200Z,8.57
2022-12-23T12:25:55.330Z,8.55
2022-12-23T12:28:30.001Z,8.58
2022-12-23T12:31:11.708Z,8.60
2022-12-23T12:33:52.225Z,8.64
2022-12-23T12:36:30.480Z,8.65
2022-12-23T12:38:59.698Z,8.64
2022-12-23T12:41:58.520Z,8.68
2022-12-23T12:45:04.052Z,8.69
2022-12-23T12:48:00.110Z,8.70
2022-12-23T12:50:31.235Z,8.73
2022-12-23T12:53:05.923Z,8.75
2022-12-23T12:55:40.006Z,8.79
2022-12-23T12:58:18.707Z,8.81
2022-12-23T13:01:21.794Z,8.83
2022-12-23T13:04:07.034Z,8.90
2022-12-23T13:07:07.178Z,8.91
2022-12-23T13:09:44.683Z,8.90
2022-12-23T13:12:21.751Z,8.87
2022-12-23T13:15:04.488Z,8.87
2022-12-23T13:17:44.761Z,8.85
2022-12-23T13:20:32.154Z,8.84
2022-12-23T13:23:34.405Z,8.89
2022-12-23T13:26:05.387Z,8.90
2022-12-23T13:28:45.691Z,8.91
2022-12-23T13:31:35.103Z,8.93
2022-12-23T13:34:23.934Z,9.00
2022-12-23T13:37:07.197Z,9.11
2022-12-23T13:39:45.560Z,9.14
2022-12-23T13:42:20.650Z,9.18
2022-12-23T13:44:47.352Z,9.24
2022-12-23T13:47:27.963Z,9.30
2022-12-23T13:50:17.107Z,9.37
2022-12-23T13:53:28.445Z,9.51
2022-12-23T13:56:24.128Z,9.64
2022-12-23T13:58:51.505Z,9.76
2022-12-23T14:01:17.997Z,9.90
2022-12-23T14:03:47.681Z,10.01
2022-12-23T14:06:23.814Z,10.19
2022-12-23T14:08:52.668Z,10.42
2022-12-23T14:11:26.636Z,10.72
2022-12-23T14:14:00.392Z,10.87
2022-12-23T14:16:48.589Z,10.97
2022-12-23T14:19:42.638Z,11.04
2022-12-23T14:22:21.209Z,11.06
2022-12-23T14:24:59.895Z,11.08
2022-12-23T14:27:33.847Z,11.09
2022-12-23T14:30:09.658Z,11.08
2022-12-23T14:32:44.173Z,11.09
2022-12-23T14:35:19.422Z,11.12
2022-12-23T14:38:07.929Z,11.12
2022-12-23T14:40:37.161Z,11.10
2022-12-23T14:43:18.772Z,11.08
2022-12-23T14:45:45.437Z,11.04
2022-12-23T14:48:33.845Z,11.01
2022-12-23T14:51:20.980Z,11.00
2022-12-23T14:53:53.787Z,10.94
2022-12-23T14:56:38.694Z,10.91
2022-12-23T14:59:50.638Z,10.91
2022-12-23T15:02:33.760Z,10.87
2022-12-23T15:05:00.647Z,10.87
2022-12-23T15:07:46.305Z,10.86
2022-12-23T15:10:20.234Z,10.86
2022-12-23T15:12:51.362Z,10.85
2022-12-23T15:15:19.322Z,10.80
2022-12-23T15:17:46.643Z,10.74
2022-12-23T15:20:21.070Z,10.72
2022-12-23T15:22:49.001Z,10.70
2022-12-23T15:25:20.634Z,10.73
2022-12-23T15:27:49.191Z,10.73
2022-12-23T15:30:18.501Z,10.70
2022-12-23T15:32:47.750Z,10.70
2022-12-23T15:35:23.307Z,10.68
2022-12-23T15:37:51.162Z,10.65
2022-12-23T15:40:29.008Z,10.62
2022-12-23T15:42:55.981Z,10.56
2022-12-23T15:45:37.915Z,10.54
2022-12-23T15:48:07.414Z,10.52
2022-12-23T15:50:41.886Z,10.47
2022-12-23T15:53:09.890Z,10.45
2022-12-23T15:55:40.096Z,10.39
2022-12-23T15:58:06.794Z,10.33
2022-12-23T16:00:38.829Z,10.30
2022-12-23T16:03:10.447Z,10.26
2022-12-23T16:05:43.146Z,10.23
2022-12-23T16:08:12.021Z,10.25
2022-12-23T16:10:39.705Z,10.26
2022-12-23T16:13:17.976Z,10.28
2022-12-23T16:15:45.183Z,10.31
2022-12-23T16:18:21.691Z,10.30
2022-12-23T16:20:59.440Z,10.30
2022-12-23T16:23:30.220Z,10.34
2022-12-23T16:26:00.344Z,10.35
2022-12-23T16:28:30.876Z,10.32
2022-12-23T16:30:58.612Z,10.35
2022-12-23T16:33:34.197Z,10.36
2022-12-23T16:36:22.447Z,10.37
2022-12-23T16:38:51.104Z,10.35
2022-12-23T16:41:19.710Z,10.35
2022-12-23T16:43:52.105Z,10.33
2022-12-23T16:46:21.655Z,10.28
2022-12-23T16:48:52.699Z,10.28
2022-12-23T16:51:22.857Z,10.25
2022-12-23T16:53:51.862Z,10.23
2022-12-23T16:56:20.851Z,10.24
2022-12-23T16:58:47.719Z,10.25
2022-12-23T17:01:17.177Z,10.26
2022-12-23T17:03:43.987Z,10.27
2022-12-23T17:06:14.849Z,10.26
2022-12-23T17:08:42.398Z,10.28
2022-12-23T17:11:16.126Z,10.30
2022-12-23T17:13:43.066Z,10.42
2022-12-23T17:16:15.361Z,10.48
2022-12-23T17:18:42.008Z,10.54
2022-12-23T17:21:20.372Z,10.62
2022-12-23T17:23:47.240Z,10.65
2022-12-23T17:26:13.783Z,10.71
2022-12-23T17:28:40.327Z,10.75
2022-12-23T17:31:13.713Z,10.78
2022-12-23T17:33:41.856Z,10.78
2022-12-23T17:36:11.086Z,10.76
2022-12-23T17:38:37.750Z,10.75
2022-12-23T17:41:04.778Z,10.78
2022-12-23T17:43:31.391Z,10.81
2022-12-23T17:45:57.967Z,10.81
2022-12-23T17:48:31.058Z,10.82
2022-12-23T17:50:58.236Z,10.85
2022-12-23T17:53:24.825Z,10.87
2022-12-23T17:55:51.371Z,10.84
2022-12-23T17:58:17.912Z,10.84
2022-12-23T18:00:44.509Z,10.83
2022-12-23T18:03:22.822Z,10.82
2022-12-23T18:05:51.915Z,10.83
2022-12-23T18:08:20.934Z,10.80
2022-12-23T18:10:47.487Z,10.78
2022-12-23T18:13:17.466Z,10.80
2022-12-23T18:15:45.522Z,10.82
2022-12-23T18:18:27.563Z,10.79
2022-12-23T18:20:58.625Z,10.82
2022-12-23T18:23:28.683Z,10.79
2022-12-23T18:25:57.137Z,10.78
2022-12-23T18:28:26.415Z,10.78
2022-12-23T18:30:55.793Z,10.75
2022-12-23T18:33:24.111Z,10.78
2022-12-23T18:35:51.025Z,10.72
2022-12-23T18:38:18.067Z,10.68
2022-12-23T18:40:44.945Z,10.73
2022-12-23T18:43:20.347Z,10.80
2022-12-23T18:45:52.404Z,10.83
2022-12-23T18:48:21.500Z,10.85
2022-12-23T18:50:49.249Z,10.86
2022-12-23T18:53:24.970Z,10.83
2022-12-23T18:55:52.922Z,10.80
2022-12-23T18:58:19.909Z,10.80
2022-12-23T19:00:50.172Z,10.79
2022-12-23T19:03:19.371Z,10.84
2022-12-23T19:05:47.324Z,10.82
2022-12-23T19:08:13.858Z,10.80
2022-12-23T19:10:40.590Z,10.79
2022-12-23T19:13:07.078Z,10.74
2022-12-23T19:15:33.628Z,10.71
2022-12-23T19:18:00.173Z,10.72
2022-12-23T19:20:26.686Z,10.64
2022-12-23T19:22:53.246Z,10.67
2022-12-23T19:25:20.157Z,10.64
2022-12-23T19:27:46.774Z,10.59
2022-12-23T19:30:17.148Z,10.60
2022-12-23T19:32:44.629Z,10.60
2022-12-23T19:35:14.647Z,10.60
2022-12-23T19:37:42.363Z,10.59
2022-12-23T19:40:10.576Z,10.62
2022-12-23T19:42:43.948Z,10.59
2022-12-23T19:45:11.264Z,10.56
2022-12-23T19:47:37.997Z,10.59
2022-12-23T19:50:06.180Z,10.55
2022-12-23T19:52:33.282Z,10.52
2022-12-23T19:54:59.797Z,10.49
2022-12-23T19:57:26.481Z,10.50
2022-12-23T19:59:53.643Z,10.47
2022-12-23T20:02:20.463Z,10.47
2022-12-23T20:04:47.223Z,10.42
2022-12-23T20:07:13.761Z,10.43
2022-12-23T20:09:40.513Z,10.43
2022-12-23T20:12:07.399Z,10.41
2022-12-23T20:14:34.634Z,10.38
2022-12-23T20:17:01.801Z,10.39
2022-12-23T20:19:29.532Z,10.36
2022-12-23T20:21:56.065Z,10.41
2022-12-23T20:24:22.635Z,10.40
2022-12-23T20:26:49.199Z,10.41
2022-12-23T20:29:15.802Z,10.31
2022-12-23T20:31:45.477Z,10.26
2022-12-23T20:34:15.712Z,10.21
2022-12-23T20:36:42.403Z,10.16
2022-12-23T20:39:09.118Z,10.12
2022-12-23T20:41:35.697Z,10.14
2022-12-23T20:44:33.453Z,10.14
2022-12-23T20:46:50.137Z,10.17
2022-12-23T20:49:16.699Z,10.23
2022-12-23T20:51:43.198Z,10.21
2022-12-23T20:54:09.789Z,10.20
2022-12-23T20:56:36.343Z,10.17
2022-12-23T20:59:03.963Z,10.18
2022-12-23T21:01:33.245Z,10.14
2022-12-23T21:04:01.847Z,10.07
2022-12-23T21:06:30.176Z,10.06
2022-12-23T21:08:59.542Z,10.08
2022-12-23T21:11:30.332Z,10.08
2022-12-23T21:14:01.114Z,10.07
2022-12-23T21:16:32.161Z,10.09
2022-12-23T21:18:59.793Z,10.10
2022-12-23T21:21:28.101Z,10.11
2022-12-23T21:23:57.668Z,10.12
2022-12-23T21:26:26.583Z,10.08
2022-12-23T21:28:54.613Z,10.01
2022-12-23T21:31:24.010Z,9.95
2022-12-23T21:33:52.507Z,9.83
2022-12-23T21:36:21.992Z,9.73
2022-12-23T21:38:49.812Z,9.69
2022-12-23T21:41:23.437Z,9.65
2022-12-23T21:43:50.725Z,9.58
2022-12-23T21:46:22.102Z,9.56
2022-12-23T21:48:49.752Z,9.49
2022-12-23T21:51:20.205Z,9.51
2022-12-23T21:53:48.494Z,9.50
2022-12-23T21:56:18.071Z,9.47
2022-12-23T21:58:45.527Z,9.48
2022-12-23T22:01:20.461Z,9.45
2022-12-23T22:03:48.832Z,9.40
2022-12-23T22:06:21.510Z,9.36
2022-12-23T22:08:48.622Z,9.35
2022-12-23T22:11:18.247Z,9.31
2022-12-23T22:13:45.795Z,9.30
2022-12-23T22:16:17.088Z,9.31
2022-12-23T22:18:44.031Z,9.27
2022-12-23T22:21:13.055Z,9.25
2022-12-23T22:23:39.887Z,9.25
2022-12-23T22:26:08.147Z,9.26
2022-12-23T22:28:36.285Z,9.28
2022-12-23T22:31:05.589Z,9.27
2022-12-23T22:33:32.695Z,9.31
2022-12-23T22:35:59.810Z,9.36
2022-12-23T22:38:26.686Z,9.37
2022-12-23T22:40:53.874Z,9.40
2022-12-23T22:43:20.503Z,9.44
2022-12-23T22:45:47.069Z,9.39
2022-12-23T22:48:13.804Z,9.47
2022-12-23T22:50:40.432Z,9.49
2022-12-23T22:53:07.064Z,9.50
2022-12-23T22:55:33.574Z,9.42
2022-12-23T22:58:00.146Z,9.44
2022-12-23T23:00:26.707Z,9.35
2022-12-23T23:02:53.188Z,9.34
2022-12-23T23:05:19.992Z,9.31
2022-12-23T23:07:47.116Z,9.27
2022-12-23T23:10:14.904Z,9.19
2022-12-23T23:12:41.605Z,9.23
2022-12-23T23:15:08.692Z,9.17
2022-12-23T23:17:35.364Z,9.18
2022-12-23T23:20:02.006Z,9.10
2022-12-23T23:22:28.703Z,9.01
2022-12-23T23:24:55.240Z,9.00
2022-12-23T23:27:21.735Z,8.99
2022-12-23T23:29:48.396Z,8.94
2022-12-23T23:32:14.992Z,8.92
2022-12-23T23:34:42.144Z,8.94
2022-12-23T23:37:08.660Z,8.90
2022-12-23T23:39:35.221Z,8.95
2022-12-23T23:42:01.890Z,8.92
2022-12-23T23:44:28.510Z,8.92
2022-12-23T23:46:55.260Z,8.88
2022-12-23T23:49:22.839Z,8.91
2022-12-23T23:51:50.251Z,8.85
2022-12-23T23:54:17.024Z,8.85
2022-12-23T23:56:43.472Z,8.85
2022-12-23T23:59:10.006Z,8.83
